createdAt,value
2024-05-09T00:01:09.236Z,3.65
2024-05-09T00:03:38.542Z,4.03
2024-05-09T00:06:08.097Z,4.53
2024-05-09T00:08:37.486Z,4.05
2024-05-09T00:11:09.448Z,4.25
2024-05-09T00:13:38.618Z,4.10
2024-05-09T00:16:09.173Z,4.07
2024-05-09T00:18:38.456Z,4.30
2024-05-09T00:21:08.859Z,4.38
2024-05-09T00:23:38.058Z,4.28
2024-05-09T00:26:10.070Z,3.83
2024-05-09T00:28:39.260Z,4.43
2024-05-09T00:31:08.440Z,3.95
2024-05-09T00:33:37.848Z,4.72
2024-05-09T00:36:07.874Z,4.40
2024-05-09T00:38:37.319Z,4.18
2024-05-09T00:41:06.908Z,4.72
2024-05-09T00:43:38.684Z,4.43
2024-05-09T00:46:08.676Z,4.70
2024-05-09T00:48:38.223Z,5.07
2024-05-09T00:51:08.613Z,4.40
2024-05-09T00:53:38.062Z,4.57
2024-05-09T00:56:08.100Z,4.40
2024-05-09T00:58:40.698Z,5.18
2024-05-09T01:01:10.779Z,5.20
2024-05-09T01:03:40.187Z,4.93
2024-05-09T01:06:09.455Z,5.35
2024-05-09T01:08:38.736Z,5.57
2024-05-09T01:11:08.065Z,6.13
2024-05-09T01:13:39.868Z,5.78
2024-05-09T01:16:09.277Z,6.07
2024-05-09T01:18:38.612Z,5.88
2024-05-09T01:21:09.481Z,6.05
2024-05-09T01:23:41.644Z,6.47
2024-05-09T01:26:10.956Z,6.38
2024-05-09T01:28:40.128Z,6.75
2024-05-09T01:31:15.248Z,5.57
2024-05-09T01:33:45.128Z,6.43
2024-05-09T01:36:14.449Z,6.30
2024-05-09T01:38:46.169Z,5.97
2024-05-09T01:41:15.431Z,5.78
2024-05-09T01:43:44.680Z,6.20
2024-05-09T01:46:15.387Z,6.72
2024-05-09T01:48:44.675Z,6.57
2024-05-09T01:51:14.049Z,6.93
2024-05-09T01:53:46.475Z,7.32
2024-05-09T01:56:15.716Z,7.35
2024-05-09T01:58:46.112Z,7.50
2024-05-09T02:01:15.439Z,7.57
2024-05-09T02:03:47.494Z,7.90
2024-05-09T02:06:17.020Z,7.53
2024-05-09T02:08:48.820Z,7.35
2024-05-09T02:11:18.193Z,6.70
2024-05-09T02:13:47.478Z,7.18
2024-05-09T02:16:17.244Z,7.70
2024-05-09T02:18:46.449Z,7.32
2024-05-09T02:21:15.722Z,7.22
2024-05-09T02:23:45.008Z,6.97
2024-05-09T02:26:16.908Z,7.60
2024-05-09T02:28:46.251Z,7.47
2024-05-09T02:31:15.760Z,7.50
2024-05-09T02:33:42.601Z,8.13
2024-05-09T02:36:12.587Z,7.80
2024-05-09T02:38:39.607Z,7.75
2024-05-09T02:41:08.847Z,7.40
2024-05-09T02:43:38.036Z,7.35
2024-05-09T02:46:07.555Z,7.78
2024-05-09T02:48:34.317Z,6.78
2024-05-09T02:51:04.554Z,6.85
2024-05-09T02:53:31.426Z,6.65
2024-05-09T02:56:00.862Z,6.32
2024-05-09T02:58:27.522Z,7.35
2024-05-09T03:00:59.440Z,6.68
2024-05-09T03:03:26.681Z,7.00
2024-05-09T03:05:56.250Z,7.38
2024-05-09T03:08:23.025Z,6.75
2024-05-09T03:10:52.280Z,7.00
2024-05-09T03:13:19.334Z,7.03
2024-05-09T03:15:48.474Z,7.00
2024-05-09T03:18:17.755Z,6.90
2024-05-09T03:20:47.096Z,6.35
2024-05-09T03:23:13.883Z,7.68
2024-05-09T03:25:43.348Z,6.70
2024-05-09T03:28:11.289Z,6.15
2024-05-09T03:30:42.853Z,7.30
2024-05-09T03:33:10.560Z,7.18
2024-05-09T03:35:42.579Z,7.38
2024-05-09T03:38:11.938Z,6.45
2024-05-09T03:40:47.628Z,7.47
2024-05-09T03:43:17.862Z,6.78
2024-05-09T03:45:47.564Z,7.20
2024-05-09T03:48:14.555Z,7.18
2024-05-09T03:50:46.646Z,6.70
2024-05-09T03:53:14.690Z,6.93
2024-05-09T03:55:44.086Z,7.07
2024-05-09T03:58:12.802Z,7.38
2024-05-09T04:00:42.535Z,7.43
2024-05-09T04:03:11.476Z,7.95
2024-05-09T04:05:43.781Z,7.68
2024-05-09T04:08:14.283Z,8.13
2024-05-09T04:10:43.610Z,7.88
2024-05-09T04:13:10.958Z,7.90
2024-05-09T04:15:40.227Z,7.97
2024-05-09T04:18:07.287Z,7.70
2024-05-09T04:20:39.695Z,8.27
2024-05-09T04:23:10.775Z,7.90
2024-05-09T04:25:45.331Z,7.40
2024-05-09T04:28:12.745Z,7.03
2024-05-09T04:30:42.837Z,7.53
2024-05-09T04:33:12.171Z,7.88
2024-05-09T04:35:44.586Z,7.85
2024-05-09T04:38:12.017Z,7.50
2024-05-09T04:40:44.048Z,7.57
2024-05-09T04:43:15.070Z,6.75
2024-05-09T04:45:44.505Z,6.60
2024-05-09T04:48:11.600Z,7.43
2024-05-09T04:50:41.235Z,7.28
2024-05-09T04:53:10.199Z,7.43
2024-05-09T04:55:40.809Z,6.85
2024-05-09T04:58:11.533Z,7.30
2024-05-09T05:00:41.559Z,6.90
2024-05-09T05:03:12.872Z,6.95
2024-05-09T05:05:45.599Z,6.85
2024-05-09T05:08:13.888Z,6.95
2024-05-09T05:10:43.517Z,6.82
2024-05-09T05:13:16.357Z,6.05
2024-05-09T05:15:45.810Z,6.88
2024-05-09T05:18:12.512Z,6.93
2024-05-09T05:20:41.756Z,6.72
2024-05-09T05:23:10.949Z,6.25
2024-05-09T05:25:40.318Z,7.20
2024-05-09T05:28:07.373Z,6.80
2024-05-09T05:30:39.974Z,6.47
2024-05-09T05:33:09.792Z,6.68
2024-05-09T05:35:39.759Z,6.07
2024-05-09T05:38:07.544Z,5.95
2024-05-09T05:40:38.569Z,6.68
2024-05-09T05:43:07.339Z,7.22
2024-05-09T05:45:39.507Z,6.15
2024-05-09T05:48:07.582Z,6.00
2024-05-09T05:50:38.480Z,6.35
2024-05-09T05:53:07.633Z,7.10
2024-05-09T05:55:37.691Z,5.90
2024-05-09T05:58:04.803Z,6.05
2024-05-09T06:00:38.380Z,6.00
2024-05-09T06:03:10.218Z,6.40
2024-05-09T06:05:43.197Z,6.78
2024-05-09T06:08:10.293Z,6.43
2024-05-09T06:10:41.088Z,6.95
2024-05-09T06:13:10.467Z,5.75
2024-05-09T06:15:39.927Z,6.10
2024-05-09T06:18:10.890Z,6.10
2024-05-09T06:20:43.440Z,5.70
2024-05-09T06:23:11.013Z,6.07
2024-05-09T06:25:41.800Z,5.65
2024-05-09T06:28:08.457Z,6.47
2024-05-09T06:30:42.201Z,6.28
2024-05-09T06:33:14.558Z,6.53
2024-05-09T06:35:45.848Z,5.82
2024-05-09T06:38:12.961Z,5.43
2024-05-09T06:40:44.182Z,5.80
2024-05-09T06:43:12.042Z,6.47
2024-05-09T06:45:41.709Z,6.13
2024-05-09T06:48:09.800Z,6.05
2024-05-09T06:50:42.498Z,6.03
2024-05-09T06:53:09.500Z,5.40
2024-05-09T06:55:39.074Z,5.47
2024-05-09T06:58:07.071Z,5.15
2024-05-09T07:00:39.768Z,5.28
2024-05-09T07:03:11.640Z,5.95
2024-05-09T07:05:42.702Z,6.18
2024-05-09T07:08:12.568Z,5.40
2024-05-09T07:10:39.407Z,5.75
2024-05-09T07:13:10.993Z,5.80
2024-05-09T07:15:38.300Z,5.20
2024-05-09T07:18:13.832Z,5.35
2024-05-09T07:20:43.699Z,5.63
2024-05-09T07:23:13.531Z,6.05
2024-05-09T07:25:41.420Z,5.43
2024-05-09T07:28:13.874Z,5.57
2024-05-09T07:30:40.561Z,5.10
2024-05-09T07:33:10.029Z,5.22
2024-05-09T07:35:36.859Z,5.18
2024-05-09T07:38:08.775Z,5.03
2024-05-09T07:40:37.125Z,5.05
2024-05-09T07:43:06.916Z,5.13
2024-05-09T07:49:45.067Z,4.90
2024-05-09T07:53:07.633Z,4.88
2024-05-09T07:53:57.053Z,5.53
2024-05-09T07:56:26.847Z,4.80
2024-05-09T07:58:56.537Z,5.05
2024-05-09T08:01:26.575Z,5.53
2024-05-09T08:03:56.415Z,5.03
2024-05-09T08:06:23.520Z,5.00
2024-05-09T08:08:55.885Z,4.85
2024-05-09T08:11:23.770Z,4.38
2024-05-09T08:13:53.095Z,5.30
2024-05-09T08:16:19.928Z,4.32
2024-05-09T08:18:49.303Z,4.97
2024-05-09T08:21:15.979Z,4.13
2024-05-09T08:23:45.173Z,4.45
2024-05-09T08:26:14.494Z,5.18
2024-05-09T08:28:43.664Z,4.55
2024-05-09T08:31:11.640Z,4.40
2024-05-09T08:33:46.551Z,4.82
2024-05-09T08:36:13.776Z,4.72
2024-05-09T08:38:42.922Z,4.40
2024-05-09T08:41:09.551Z,4.50
2024-05-09T08:43:42.117Z,4.65
2024-05-09T08:46:09.050Z,4.53
2024-05-09T08:48:39.411Z,3.55
2024-05-09T08:51:06.962Z,4.00
2024-05-09T08:53:36.177Z,3.40
2024-05-09T08:56:02.892Z,3.70
2024-05-09T08:58:33.088Z,4.07
2024-05-09T09:01:04.027Z,3.50
2024-05-09T09:03:36.008Z,3.95
2024-05-09T09:06:06.522Z,3.65
2024-05-09T09:08:35.796Z,4.00
2024-05-09T09:11:02.949Z,3.53
2024-05-09T09:13:32.206Z,2.80
2024-05-09T09:15:59.858Z,3.08
2024-05-09T09:18:33.050Z,2.70
2024-05-09T09:20:59.988Z,2.95
2024-05-09T09:23:30.444Z,3.20
2024-05-09T09:25:58.662Z,2.47
2024-05-09T09:28:28.058Z,3.42
2024-05-09T09:31:01.457Z,3.17
2024-05-09T09:33:35.928Z,2.88
2024-05-09T09:36:03.241Z,2.75
2024-05-09T09:38:34.055Z,2.90
2024-05-09T09:41:06.156Z,3.00
2024-05-09T09:43:36.036Z,2.85
2024-05-09T09:46:06.322Z,3.38
2024-05-09T09:48:41.394Z,3.60
2024-05-09T09:51:08.427Z,2.70
2024-05-09T09:53:38.210Z,3.38
2024-05-09T09:56:07.434Z,2.95
2024-05-09T09:58:37.536Z,3.40
2024-05-09T10:01:04.696Z,2.85
2024-05-09T10:03:34.468Z,3.05
2024-05-09T10:06:05.525Z,3.03
2024-05-09T10:08:34.888Z,2.80
2024-05-09T10:11:04.365Z,2.90
2024-05-09T10:13:37.185Z,3.38
2024-05-09T10:16:08.727Z,2.90
2024-05-09T10:18:42.092Z,2.58
2024-05-09T10:21:18.686Z,3.05
2024-05-09T10:23:59.532Z,3.13
2024-05-09T10:26:33.722Z,3.28
2024-05-09T10:29:03.539Z,3.25
2024-05-09T10:31:30.420Z,2.80
2024-05-09T10:33:59.923Z,3.05
2024-05-09T10:36:29.299Z,2.90
2024-05-09T10:38:58.471Z,3.30
2024-05-09T10:41:25.292Z,3.03
2024-05-09T10:43:54.722Z,3.10
2024-05-09T10:46:21.862Z,2.95
2024-05-09T10:48:51.335Z,2.83
2024-05-09T10:51:19.089Z,2.95
2024-05-09T10:53:52.416Z,2.92
2024-05-09T10:56:19.088Z,2.88
2024-05-09T10:58:48.273Z,3.10
2024-05-09T11:01:16.657Z,2.72
2024-05-09T11:03:49.851Z,3.28
2024-05-09T11:06:18.049Z,2.72
2024-05-09T11:08:51.349Z,3.05
2024-05-09T11:11:18.201Z,2.90
2024-05-09T11:13:47.441Z,3.15
2024-05-09T11:16:19.737Z,3.17
2024-05-09T11:18:56.404Z,3.25
2024-05-09T11:21:24.233Z,2.95
2024-05-09T11:23:56.205Z,3.05
2024-05-09T11:26:25.088Z,3.40
2024-05-09T11:28:54.622Z,3.22
2024-05-09T11:31:21.727Z,3.45
2024-05-09T11:33:51.215Z,3.08
2024-05-09T11:36:17.907Z,3.25
2024-05-09T11:38:47.230Z,3.83
2024-05-09T11:41:19.270Z,3.28
2024-05-09T11:43:48.482Z,3.03
2024-05-09T11:46:15.323Z,2.95
2024-05-09T11:48:44.860Z,3.00
2024-05-09T11:51:11.553Z,2.88
2024-05-09T11:53:40.719Z,3.17
2024-05-09T11:56:07.621Z,3.00
2024-05-09T11:58:39.568Z,3.00
2024-05-09T12:01:06.429Z,2.92
2024-05-09T12:03:37.898Z,2.97
2024-05-09T12:06:04.971Z,3.17
2024-05-09T12:08:34.311Z,3.20
2024-05-09T12:11:01.220Z,2.88
2024-05-09T12:13:30.635Z,2.92
2024-05-09T12:15:59.893Z,3.22
2024-05-09T12:18:29.243Z,3.10
2024-05-09T12:20:55.957Z,3.30
2024-05-09T12:23:25.118Z,2.92
2024-05-09T12:25:52.061Z,3.35
2024-05-09T12:28:21.955Z,3.20
2024-05-09T12:30:49.831Z,3.20
2024-05-09T12:33:22.369Z,2.47
2024-05-09T12:35:50.950Z,2.88
2024-05-09T12:38:20.725Z,2.80
2024-05-09T12:40:47.401Z,3.20
2024-05-09T12:43:16.751Z,2.90
2024-05-09T12:45:43.483Z,3.03
2024-05-09T12:48:13.493Z,2.92
2024-05-09T12:50:43.170Z,3.20
2024-05-09T12:53:12.548Z,3.00
2024-05-09T12:55:47.985Z,3.03
2024-05-09T12:58:24.131Z,3.17
2024-05-09T13:00:51.854Z,3.15
2024-05-09T13:03:21.583Z,3.05
2024-05-09T13:05:51.824Z,3.13
2024-05-09T13:08:22.062Z,3.20
2024-05-09T13:10:50.106Z,3.13
2024-05-09T13:13:19.732Z,2.72
2024-05-09T13:15:46.658Z,2.78
2024-05-09T13:18:16.042Z,2.67
2024-05-09T13:20:42.716Z,2.75
2024-05-09T13:23:14.531Z,2.90
2024-05-09T13:25:41.255Z,3.35
2024-05-09T13:28:10.595Z,2.97
2024-05-09T13:30:40.728Z,2.90
2024-05-09T13:33:12.789Z,2.58
2024-05-09T13:35:45.633Z,3.17
2024-05-09T13:38:21.851Z,2.97
2024-05-09T13:40:49.244Z,3.25
2024-05-09T13:43:19.247Z,2.63
2024-05-09T13:45:46.398Z,2.95
2024-05-09T13:48:15.885Z,2.80
2024-05-09T13:50:42.733Z,3.00
2024-05-09T13:53:11.883Z,2.70
2024-05-09T13:55:41.115Z,3.13
2024-05-09T13:58:10.923Z,3.38
2024-05-09T14:00:45.917Z,2.80
2024-05-09T14:03:19.704Z,2.85
2024-05-09T14:05:48.041Z,2.63
2024-05-09T14:08:19.425Z,3.20
2024-05-09T14:10:49.299Z,2.60
2024-05-09T14:13:18.898Z,2.60
2024-05-09T14:15:46.005Z,2.72
2024-05-09T14:18:15.482Z,3.15
2024-05-09T14:20:42.699Z,3.03
2024-05-09T14:23:12.360Z,2.83
2024-05-09T14:25:42.341Z,2.60
2024-05-09T14:28:15.325Z,3.05
2024-05-09T14:30:42.785Z,2.95
2024-05-09T14:33:12.501Z,2.60
2024-05-09T14:35:39.418Z,3.10
2024-05-09T14:38:09.902Z,2.80
2024-05-09T14:40:42.248Z,2.92
2024-05-09T14:43:16.449Z,2.80
2024-05-09T14:45:43.965Z,3.25
2024-05-09T14:48:14.524Z,2.80
2024-05-09T14:50:42.050Z,2.80
2024-05-09T14:53:12.775Z,2.78
2024-05-09T14:55:41.702Z,2.92
2024-05-09T14:58:13.111Z,2.75
2024-05-09T15:00:46.581Z,2.72
2024-05-09T15:03:20.086Z,2.78
2024-05-09T15:05:47.879Z,2.58
2024-05-09T15:08:19.548Z,2.83
2024-05-09T15:10:46.685Z,3.17
2024-05-09T15:13:17.048Z,2.92
2024-05-09T15:15:46.745Z,3.13
2024-05-09T15:18:16.300Z,2.85
2024-05-09T15:20:43.902Z,3.08
2024-05-09T15:23:13.304Z,3.28
2024-05-09T15:25:40.421Z,2.92
2024-05-09T15:28:10.042Z,2.72
2024-05-09T15:30:37.364Z,3.00
2024-05-09T15:33:09.654Z,2.85
2024-05-09T15:35:41.051Z,2.60
2024-05-09T15:38:11.144Z,2.53
2024-05-09T15:40:40.395Z,2.45
2024-05-09T15:43:11.683Z,2.97
2024-05-09T15:45:39.410Z,2.92
2024-05-09T15:48:12.520Z,2.50
2024-05-09T15:50:41.633Z,3.00
2024-05-09T15:53:13.085Z,2.80
2024-05-09T15:55:41.283Z,2.47
2024-05-09T15:58:11.247Z,3.00
2024-05-09T16:00:41.615Z,2.90
2024-05-09T16:03:15.984Z,3.20
2024-05-09T16:05:43.761Z,3.08
2024-05-09T16:08:14.355Z,22.15
2024-05-09T16:10:44.466Z,10.73
2024-05-09T16:13:14.884Z,4.00
2024-05-09T16:15:43.599Z,10.05
2024-05-09T16:18:15.933Z,4.18
2024-05-09T16:20:44.834Z,3.03
2024-05-09T16:23:15.686Z,3.90
2024-05-09T16:25:45.251Z,2.80
2024-05-09T16:28:15.058Z,3.15
2024-05-09T16:30:42.133Z,3.33
2024-05-09T16:33:11.797Z,4.80
2024-05-09T16:35:41.256Z,3.60
2024-05-09T16:38:10.662Z,2.60
2024-05-09T16:40:40.321Z,2.95
2024-05-09T16:43:11.741Z,3.30
2024-05-09T16:45:40.260Z,4.18
2024-05-09T16:48:11.326Z,2.80
2024-05-09T16:50:38.719Z,2.75
2024-05-09T16:53:10.668Z,3.35
2024-05-09T16:55:37.575Z,3.20
2024-05-09T16:58:08.570Z,2.90
2024-05-09T17:00:41.076Z,3.22
2024-05-09T17:03:15.555Z,9.23
2024-05-09T17:05:43.473Z,3.08
2024-05-09T17:08:19.652Z,3.85
2024-05-09T17:10:48.307Z,3.60
2024-05-09T17:13:18.159Z,3.58
2024-05-09T17:15:47.814Z,2.92
2024-05-09T17:18:17.379Z,3.00
2024-05-09T17:20:46.637Z,3.20
2024-05-09T17:23:15.817Z,2.67
2024-05-09T17:25:45.441Z,2.78
2024-05-09T17:28:12.540Z,2.67
2024-05-09T17:30:42.828Z,3.00
2024-05-09T17:33:10.922Z,2.85
2024-05-09T17:35:41.154Z,3.10
2024-05-09T17:38:07.988Z,2.80
2024-05-09T17:40:40.256Z,3.15
2024-05-09T17:43:08.848Z,3.17
2024-05-09T17:45:40.959Z,3.35
2024-05-09T17:48:09.417Z,3.10
2024-05-09T17:50:38.952Z,2.97
2024-05-09T17:53:06.563Z,3.00
2024-05-09T17:55:36.518Z,3.20
2024-05-09T17:58:06.645Z,3.78
2024-05-09T18:00:39.911Z,3.25
2024-05-09T18:03:10.687Z,3.63
2024-05-09T18:05:40.401Z,2.80
2024-05-09T18:08:08.129Z,3.30
2024-05-09T18:10:39.690Z,3.05
2024-05-09T18:13:10.289Z,3.17
2024-05-09T18:15:40.191Z,3.13
2024-05-09T18:18:08.008Z,3.33
2024-05-09T18:20:43.765Z,3.00
2024-05-09T18:23:13.266Z,3.38
2024-05-09T18:25:43.083Z,2.80
2024-05-09T18:28:12.480Z,3.33
2024-05-09T18:30:43.579Z,3.00
2024-05-09T18:33:11.475Z,3.03
2024-05-09T18:35:41.718Z,3.42
2024-05-09T18:38:09.155Z,3.10
2024-05-09T18:40:40.266Z,3.40
2024-05-09T18:43:09.196Z,3.63
2024-05-09T18:45:41.228Z,3.75
2024-05-09T18:48:09.817Z,4.03
2024-05-09T18:50:41.339Z,3.60
2024-05-09T18:53:09.929Z,3.50
2024-05-09T18:55:39.419Z,4.00
2024-05-09T18:58:07.317Z,4.55
2024-05-09T19:00:39.663Z,3.83
2024-05-09T19:03:13.268Z,4.22
2024-05-09T19:05:45.543Z,3.80
2024-05-09T19:08:13.143Z,3.80
2024-05-09T19:10:42.433Z,4.47
2024-05-09T19:13:12.362Z,4.40
2024-05-09T19:15:44.153Z,4.03
2024-05-09T19:18:14.540Z,3.92
2024-05-09T19:20:44.498Z,3.80
2024-05-09T19:23:11.648Z,4.85
2024-05-09T19:25:41.216Z,5.22
2024-05-09T19:28:07.993Z,7.53
2024-05-09T19:30:41.138Z,8.93
2024-05-09T19:33:10.927Z,8.20
2024-05-09T19:35:44.471Z,9.02
2024-05-09T19:38:11.768Z,9.50
2024-05-09T19:40:41.243Z,9.55
2024-05-09T19:43:08.209Z,8.30
2024-05-09T19:45:37.478Z,7.78
2024-05-09T19:48:05.479Z,8.25
2024-05-09T19:50:41.687Z,7.57
2024-05-09T19:53:14.229Z,7.28
2024-05-09T19:55:43.869Z,5.97
2024-05-09T19:58:11.417Z,6.63
2024-05-09T20:00:43.518Z,6.25
2024-05-09T20:03:12.173Z,6.13
2024-05-09T20:05:41.737Z,6.07
2024-05-09T20:08:08.443Z,6.22
2024-05-09T20:10:40.536Z,6.30
2024-05-09T20:13:08.186Z,6.32
2024-05-09T20:15:38.571Z,5.75
2024-05-09T20:18:06.313Z,6.25
2024-05-09T20:20:41.195Z,6.40
2024-05-09T20:23:10.100Z,6.35
2024-05-09T20:25:42.050Z,6.28
2024-05-09T20:28:08.928Z,6.90
2024-05-09T20:30:38.345Z,7.53
2024-05-09T20:33:07.289Z,6.47
2024-05-09T20:35:37.880Z,7.75
2024-05-09T20:38:05.304Z,7.25
2024-05-09T20:40:37.988Z,7.90
2024-05-09T20:43:09.492Z,8.07
2024-05-09T20:45:39.948Z,8.77
2024-05-09T20:48:08.759Z,9.45
2024-05-09T20:50:41.285Z,9.25
2024-05-09T20:53:10.735Z,10.52
2024-05-09T20:55:40.246Z,9.05
2024-05-09T20:58:09.941Z,10.10
2024-05-09T21:00:42.943Z,10.77
2024-05-09T21:03:12.736Z,10.68
2024-05-09T21:05:42.757Z,10.10
2024-05-09T21:08:09.470Z,10.88
2024-05-09T21:10:39.199Z,10.90
2024-05-09T21:13:06.910Z,12.27
2024-05-09T21:15:39.300Z,13.75
2024-05-09T21:18:06.120Z,12.50
2024-05-09T21:20:35.527Z,12.93
2024-05-09T21:23:02.737Z,12.80
2024-05-09T21:25:32.443Z,13.00
2024-05-09T21:27:59.412Z,13.52
2024-05-09T21:30:38.402Z,13.52
2024-05-09T21:33:13.476Z,13.43
2024-05-09T21:35:44.651Z,13.52
2024-05-09T21:38:13.660Z,13.82
2024-05-09T21:40:43.302Z,15.02
2024-05-09T21:43:10.110Z,13.77
2024-05-09T21:45:39.408Z,13.25
2024-05-09T21:48:13.485Z,13.70
2024-05-09T21:50:42.970Z,12.68
2024-05-09T21:53:10.354Z,12.85
2024-05-09T21:55:39.615Z,13.45
2024-05-09T21:58:06.457Z,12.93
2024-05-09T22:00:38.379Z,13.27
2024-05-09T22:03:06.736Z,12.57
2024-05-09T22:05:39.246Z,14.05
2024-05-09T22:08:07.262Z,14.27
2024-05-09T22:10:37.224Z,15.10
2024-05-09T22:13:05.216Z,14.68
2024-05-09T22:15:37.170Z,15.35
2024-05-09T22:18:05.935Z,14.02
2024-05-09T22:20:38.466Z,15.52
2024-05-09T22:23:09.297Z,14.80
2024-05-09T22:25:39.154Z,16.38
2024-05-09T22:28:06.803Z,15.40
2024-05-09T22:30:39.172Z,17.77
2024-05-09T22:33:10.861Z,17.25
2024-05-09T22:35:41.419Z,17.05
2024-05-09T22:38:10.641Z,17.20
2024-05-09T22:40:47.286Z,17.83
2024-05-09T22:43:21.043Z,17.05
2024-05-09T22:45:52.146Z,17.40
2024-05-09T22:48:19.443Z,16.98
2024-05-09T22:50:48.771Z,18.38
2024-05-09T22:53:18.108Z,18.20
2024-05-09T22:55:48.687Z,18.42
2024-05-09T22:58:15.618Z,18.25
2024-05-09T23:00:45.071Z,18.95
2024-05-09T23:03:11.855Z,19.45
2024-05-09T23:05:41.044Z,18.77
2024-05-09T23:08:08.609Z,16.95
2024-05-09T23:10:40.438Z,17.65
2024-05-09T23:13:08.165Z,17.20
2024-05-09T23:15:38.751Z,16.40
2024-05-09T23:18:06.261Z,16.40
2024-05-09T23:20:38.884Z,16.85
2024-05-09T23:23:06.931Z,16.20
2024-05-09T23:25:36.303Z,14.93
2024-05-09T23:28:06.524Z,14.88
2024-05-09T23:30:39.587Z,14.48
2024-05-09T23:33:08.292Z,14.48
2024-05-09T23:35:37.938Z,14.38
2024-05-09T23:38:05.022Z,13.73
2024-05-09T23:40:38.820Z,13.30
2024-05-09T23:43:11.390Z,13.50
2024-05-09T23:45:41.770Z,13.98
2024-05-09T23:48:09.703Z,13.43
2024-05-09T23:50:40.465Z,13.13
2024-05-09T23:53:09.361Z,13.73
2024-05-09T23:55:39.697Z,14.43
2024-05-09T23:58:06.902Z,14.45
